createdAt,value
2022-09-24T00:02:16.529Z,26.90
2022-09-24T00:04:44.425Z,28.00
2022-09-24T00:07:12.384Z,28.10
2022-09-24T00:09:40.876Z,28.30
2022-09-24T00:12:12.935Z,24.90
2022-09-24T00:14:41.104Z,25.80
2022-09-24T00:17:08.670Z,30.30
2022-09-24T00:19:37.162Z,29.50
2022-09-24T00:22:05.238Z,26.20
2022-09-24T00:24:53.107Z,25.20
2022-09-24T00:27:20.718Z,24.40
2022-09-24T00:29:48.677Z,24.60
2022-09-24T00:32:16.346Z,26.60
2022-09-24T00:34:44.204Z,24.20
2022-09-24T00:37:12.075Z,26.80
2022-09-24T00:39:40.354Z,22.30
2022-09-24T00:42:09.932Z,21.90
2022-09-24T00:44:54.291Z,21.90
2022-09-24T00:47:41.743Z,19.50
2022-09-24T00:50:33.585Z,19.10
2022-09-24T00:53:06.345Z,20.00
2022-09-24T00:55:34.620Z,20.00
2022-09-24T00:58:05.659Z,24.90
2022-09-24T01:00:33.674Z,21.70
2022-09-24T01:03:17.545Z,21.50
2022-09-24T01:05:45.652Z,20.60
2022-09-24T01:08:14.857Z,21.00
2022-09-24T01:11:04.114Z,20.90
2022-09-24T01:13:56.466Z,18.70
2022-09-24T01:17:04.762Z,20.10
2022-09-24T01:19:54.039Z,21.60
2022-09-24T01:22:43.804Z,17.70
2022-09-24T01:25:26.433Z,17.70
2022-09-24T01:28:33.920Z,16.50
2022-09-24T01:31:12.004Z,17.10
2022-09-24T01:33:40.502Z,18.80
2022-09-24T01:36:09.223Z,17.20
2022-09-24T01:38:42.131Z,16.60
2022-09-24T01:41:11.074Z,16.60
2022-09-24T01:43:39.349Z,17.50
2022-09-24T01:46:07.465Z,17.50
2022-09-24T01:48:38.559Z,19.00
2022-09-24T01:51:22.201Z,17.90
2022-09-24T01:54:03.452Z,15.90
2022-09-24T01:56:54.900Z,15.20
2022-09-24T01:59:31.760Z,15.70
2022-09-24T02:02:14.520Z,15.50
2022-09-24T02:04:46.210Z,18.20
2022-09-24T02:07:22.923Z,14.30
2022-09-24T02:09:51.300Z,17.60
2022-09-24T02:12:29.660Z,17.70
2022-09-24T02:15:10.886Z,16.90
2022-09-24T02:17:41.790Z,20.70
2022-09-24T02:20:14.306Z,18.80
2022-09-24T02:22:42.481Z,18.90
2022-09-24T02:25:13.251Z,20.80
2022-09-24T02:27:41.792Z,22.10
2022-09-24T02:30:11.027Z,21.10
2022-09-24T02:32:40.232Z,19.70
2022-09-24T02:35:10.218Z,14.40
2022-09-24T02:37:40.878Z,16.30
2022-09-24T02:40:11.851Z,21.00
2022-09-24T02:42:42.309Z,23.60
2022-09-24T02:45:11.403Z,18.20
2022-09-24T02:47:39.364Z,19.30
2022-09-24T02:50:07.742Z,21.10
2022-09-24T02:52:35.913Z,21.20
2022-09-24T02:55:04.742Z,16.80
2022-09-24T02:57:32.976Z,17.20
2022-09-24T03:00:01.463Z,17.40
2022-09-24T03:02:29.689Z,16.50
2022-09-24T03:04:59.645Z,16.10
2022-09-24T03:07:27.612Z,18.60
2022-09-24T03:09:55.275Z,17.40
2022-09-24T03:12:23.044Z,18.90
2022-09-24T03:14:51.113Z,17.40
2022-09-24T03:17:19.084Z,17.00
2022-09-24T03:19:47.162Z,17.80
2022-09-24T03:22:17.679Z,15.50
2022-09-24T03:24:45.752Z,18.30
2022-09-24T03:27:13.823Z,17.60
2022-09-24T03:30:00.027Z,24.00
2022-09-24T03:32:27.987Z,19.70
2022-09-24T03:34:55.851Z,18.80
2022-09-24T03:37:23.721Z,19.40
2022-09-24T03:39:51.688Z,17.90
2022-09-24T03:42:19.242Z,23.30
2022-09-24T03:44:47.021Z,17.00
2022-09-24T03:47:14.872Z,18.00
2022-09-24T03:49:42.739Z,24.80
2022-09-24T03:52:10.712Z,25.00
2022-09-24T03:54:38.476Z,24.40
2022-09-24T03:57:06.241Z,26.00
2022-09-24T03:59:36.771Z,23.70
2022-09-24T04:02:04.469Z,22.10
2022-09-24T04:04:32.298Z,20.90
2022-09-24T04:06:59.960Z,20.00
2022-09-24T04:09:27.836Z,22.90
2022-09-24T04:11:56.200Z,19.70
2022-09-24T04:14:23.961Z,20.20
2022-09-24T04:16:51.733Z,19.50
2022-09-24T04:19:19.692Z,20.30
2022-09-24T04:21:47.771Z,21.40
2022-09-24T04:24:16.233Z,19.80
2022-09-24T04:26:44.116Z,23.40
2022-09-24T04:29:13.389Z,22.10
2022-09-24T04:31:40.937Z,20.50
2022-09-24T04:34:10.622Z,24.50
2022-09-24T04:36:38.231Z,19.20
2022-09-24T04:39:06.209Z,18.30
2022-09-24T04:41:34.901Z,26.20
2022-09-24T04:44:04.014Z,19.10
2022-09-24T04:46:34.112Z,25.80
2022-09-24T04:49:04.278Z,25.20
2022-09-24T04:51:34.377Z,20.80
2022-09-24T04:54:03.029Z,18.40
2022-09-24T04:56:30.809Z,19.60
2022-09-24T04:58:58.799Z,19.60
2022-09-24T05:01:27.107Z,18.50
2022-09-24T05:04:00.478Z,18.00
2022-09-24T05:06:28.510Z,17.50
2022-09-24T05:08:56.385Z,20.10
2022-09-24T05:11:24.240Z,18.80
2022-09-24T05:13:52.208Z,19.40
2022-09-24T05:16:19.839Z,20.20
2022-09-24T05:18:47.842Z,26.00
2022-09-24T05:21:15.914Z,19.00
2022-09-24T05:23:43.473Z,18.10
2022-09-24T05:26:29.889Z,20.90
2022-09-24T05:28:57.528Z,20.00
2022-09-24T05:31:27.351Z,19.50
2022-09-24T05:33:55.320Z,20.20
2022-09-24T05:36:23.083Z,20.70
2022-09-24T05:38:50.739Z,18.80
2022-09-24T05:41:19.648Z,17.80
2022-09-24T05:43:47.812Z,28.10
2022-09-24T05:46:15.607Z,18.40
2022-09-24T05:48:43.538Z,23.00
2022-09-24T05:51:11.400Z,21.70
2022-09-24T05:53:39.488Z,20.00
2022-09-24T05:56:07.800Z,20.50
2022-09-24T05:58:36.031Z,18.10
2022-09-24T06:01:03.999Z,17.20
2022-09-24T06:03:32.212Z,19.70
2022-09-24T06:06:01.882Z,21.50
2022-09-24T06:08:31.279Z,17.00
2022-09-24T06:11:06.693Z,17.50
2022-09-24T06:13:37.870Z,18.80
2022-09-24T06:16:08.785Z,17.20
2022-09-24T06:18:39.843Z,14.90
2022-09-24T06:21:10.730Z,14.90
2022-09-24T06:23:39.272Z,14.10
2022-09-24T06:26:07.746Z,13.40
2022-09-24T06:28:35.402Z,14.50
2022-09-24T06:31:06.083Z,17.10
2022-09-24T06:33:33.854Z,19.80
2022-09-24T06:36:03.164Z,16.20
2022-09-24T06:38:31.685Z,13.80
2022-09-24T06:41:01.411Z,15.10
2022-09-24T06:43:30.084Z,16.60
2022-09-24T06:45:58.363Z,15.70
2022-09-24T06:48:28.173Z,18.70
2022-09-24T06:50:56.534Z,13.40
2022-09-24T06:53:24.830Z,14.90
2022-09-24T06:55:55.964Z,15.90
2022-09-24T06:58:24.247Z,16.60
2022-09-24T07:01:02.216Z,18.30
2022-09-24T07:03:32.580Z,18.40
2022-09-24T07:06:04.965Z,19.10
2022-09-24T07:08:32.920Z,20.20
2022-09-24T07:11:02.073Z,16.50
2022-09-24T07:13:30.188Z,14.40
2022-09-24T07:15:58.089Z,16.20
2022-09-24T07:18:26.012Z,15.30
2022-09-24T07:20:54.602Z,13.90
2022-09-24T07:23:23.039Z,14.30
2022-09-24T07:25:53.444Z,16.90
2022-09-24T07:28:21.675Z,18.30
2022-09-24T07:30:58.181Z,15.60
2022-09-24T07:33:26.009Z,15.70
2022-09-24T07:38:39.864Z,16.70
2022-09-24T07:41:09.272Z,16.10
2022-09-24T07:43:40.206Z,16.40
2022-09-24T07:46:08.425Z,14.90
2022-09-24T07:48:36.145Z,16.40
2022-09-24T07:51:06.989Z,16.60
2022-09-24T07:53:35.366Z,19.00
2022-09-24T07:56:03.335Z,14.80
2022-09-24T07:58:32.539Z,20.70
2022-09-24T08:01:01.415Z,16.20
2022-09-24T08:03:29.119Z,19.50
2022-09-24T08:05:59.820Z,17.90
2022-09-24T08:08:27.777Z,17.90
2022-09-24T08:10:56.060Z,20.00
2022-09-24T08:13:27.700Z,18.90
2022-09-24T08:15:59.873Z,16.20
2022-09-24T08:18:28.873Z,16.50
2022-09-24T08:20:56.736Z,17.70
2022-09-24T08:23:25.326Z,17.00
2022-09-24T08:25:55.677Z,17.80
2022-09-24T08:28:23.514Z,17.90
2022-09-24T08:30:51.718Z,17.50
2022-09-24T08:33:19.956Z,18.00
2022-09-24T08:35:47.829Z,16.50
2022-09-24T08:38:15.489Z,16.60
2022-09-24T08:41:12.549Z,17.70
2022-09-24T08:44:44.815Z,15.40
2022-09-24T08:47:33.474Z,14.90
2022-09-24T08:50:13.215Z,15.50
2022-09-24T08:52:43.748Z,14.80
2022-09-24T08:55:35.915Z,16.90
2022-09-24T08:58:45.726Z,14.30
2022-09-24T09:02:03.975Z,16.70
2022-09-24T09:05:03.389Z,14.00
2022-09-24T09:08:33.840Z,15.30
2022-09-24T09:11:02.998Z,12.10
2022-09-24T09:13:38.545Z,13.20
2022-09-24T09:16:17.608Z,17.20
2022-09-24T09:18:45.354Z,15.90
2022-09-24T09:21:18.712Z,13.10
2022-09-24T09:23:51.224Z,13.80
2022-09-24T09:26:21.189Z,14.20
2022-09-24T09:28:52.377Z,13.70
2022-09-24T09:31:56.525Z,11.70
2022-09-24T09:34:36.545Z,12.10
2022-09-24T09:37:32.167Z,13.20
2022-09-24T09:40:31.388Z,14.10
2022-09-24T09:43:09.273Z,13.80
2022-09-24T09:46:13.740Z,13.60
2022-09-24T09:48:45.258Z,11.90
2022-09-24T09:51:22.958Z,13.60
2022-09-24T09:53:59.509Z,12.40
2022-09-24T09:56:35.934Z,13.90
2022-09-24T09:59:13.166Z,12.00
2022-09-24T10:01:43.723Z,12.50
2022-09-24T10:04:34.805Z,11.60
2022-09-24T10:07:16.493Z,11.30
2022-09-24T10:09:45.386Z,13.80
2022-09-24T10:12:22.582Z,12.70
2022-09-24T10:15:05.282Z,11.90
2022-09-24T10:17:39.475Z,12.00
2022-09-24T10:20:27.763Z,14.60
2022-09-24T10:23:04.210Z,13.00
2022-09-24T10:25:32.284Z,16.10
2022-09-24T10:28:21.342Z,11.90
2022-09-24T10:30:57.102Z,12.80
2022-09-24T10:33:25.676Z,9.20
2022-09-24T10:36:09.413Z,8.80
2022-09-24T10:38:38.213Z,13.70
2022-09-24T10:41:28.296Z,10.40
2022-09-24T10:44:05.686Z,9.40
2022-09-24T10:47:11.237Z,10.40
2022-09-24T10:49:54.663Z,11.10
2022-09-24T10:52:47.927Z,9.50
2022-09-24T10:55:40.364Z,7.80
2022-09-24T10:59:03.229Z,7.40
2022-09-24T11:02:33.841Z,6.90
2022-09-24T11:05:12.686Z,39.50
2022-09-24T11:07:57.351Z,19.20
2022-09-24T11:11:02.894Z,52.20
2022-09-24T11:13:55.744Z,29.00
2022-09-24T11:16:39.480Z,9.70
2022-09-24T11:19:24.253Z,10.40
2022-09-24T11:22:16.901Z,8.30
2022-09-24T11:25:20.092Z,8.20
2022-09-24T11:28:03.112Z,8.00
2022-09-24T11:30:47.462Z,7.90
2022-09-24T11:34:09.667Z,7.40
2022-09-24T11:37:19.862Z,7.30
2022-09-24T11:40:23.943Z,7.20
2022-09-24T11:43:08.951Z,7.40
2022-09-24T11:45:48.382Z,6.60
2022-09-24T11:48:41.145Z,7.60
2022-09-24T11:51:40.954Z,7.80
2022-09-24T11:54:32.672Z,7.00
2022-09-24T11:57:26.571Z,8.70
2022-09-24T12:00:01.289Z,7.40
2022-09-24T12:03:06.169Z,8.20
2022-09-24T12:05:38.522Z,7.50
2022-09-24T12:08:22.321Z,7.00
2022-09-24T12:11:03.100Z,8.40
2022-09-24T12:14:13.271Z,9.00
2022-09-24T12:16:42.042Z,11.80
2022-09-24T12:19:27.113Z,25.90
2022-09-24T12:21:55.283Z,10.10
2022-09-24T12:24:39.051Z,8.10
2022-09-24T12:27:15.346Z,8.60
2022-09-24T12:30:04.344Z,7.50
2022-09-24T12:32:54.739Z,7.30
2022-09-24T12:35:28.456Z,6.50
2022-09-24T12:38:44.031Z,8.40
2022-09-24T12:41:37.290Z,7.60
2022-09-24T12:44:22.064Z,6.60
2022-09-24T12:46:58.382Z,7.40
2022-09-24T12:49:26.102Z,5.90
2022-09-24T12:52:21.599Z,9.00
2022-09-24T12:55:02.195Z,6.50
2022-09-24T12:57:52.962Z,5.60
2022-09-24T13:00:41.305Z,7.40
2022-09-24T13:03:47.469Z,8.30
2022-09-24T13:06:37.059Z,6.50
2022-09-24T13:09:40.861Z,6.80
2022-09-24T13:12:20.813Z,6.00
2022-09-24T13:15:26.126Z,7.30
2022-09-24T13:18:11.015Z,6.40
2022-09-24T13:20:42.916Z,6.70
2022-09-24T13:23:35.727Z,6.20
2022-09-24T13:26:05.739Z,5.60
2022-09-24T13:29:06.481Z,6.00
2022-09-24T13:31:47.458Z,5.80
2022-09-24T13:34:31.911Z,6.00
2022-09-24T13:37:23.540Z,5.60
2022-09-24T13:40:16.710Z,5.90
2022-09-24T13:43:11.799Z,6.50
2022-09-24T13:45:42.261Z,6.80
2022-09-24T13:48:38.538Z,5.40
2022-09-24T13:51:11.694Z,5.40
2022-09-24T13:53:49.334Z,5.30
2022-09-24T13:56:21.133Z,6.00
2022-09-24T13:58:51.062Z,5.80
2022-09-24T14:01:21.291Z,5.30
2022-09-24T14:03:57.937Z,6.90
2022-09-24T14:06:41.223Z,7.20
2022-09-24T14:09:28.879Z,7.00
2022-09-24T14:12:02.618Z,6.50
2022-09-24T14:14:31.164Z,5.50
2022-09-24T14:17:09.568Z,6.20
2022-09-24T14:19:37.542Z,7.10
2022-09-24T14:22:06.926Z,7.50
2022-09-24T14:25:09.119Z,6.20
2022-09-24T14:27:41.800Z,5.30
2022-09-24T14:30:24.806Z,6.60
2022-09-24T14:33:07.420Z,6.40
2022-09-24T14:35:38.837Z,6.40
2022-09-24T14:38:09.300Z,5.20
2022-09-24T14:40:49.907Z,6.50
2022-09-24T14:43:52.859Z,5.60
2022-09-24T14:46:28.247Z,6.30
2022-09-24T14:49:19.820Z,5.90
2022-09-24T14:52:04.236Z,6.40
2022-09-24T14:54:39.900Z,6.90
2022-09-24T14:57:17.820Z,7.50
2022-09-24T14:59:47.034Z,7.80
2022-09-24T15:02:37.051Z,6.50
2022-09-24T15:05:07.062Z,6.10
2022-09-24T15:07:35.494Z,7.70
2022-09-24T15:10:05.111Z,5.20
2022-09-24T15:12:40.039Z,7.70
2022-09-24T15:15:29.434Z,7.10
2022-09-24T15:17:57.181Z,7.20
2022-09-24T15:20:25.148Z,6.90
2022-09-24T15:22:53.010Z,6.50
2022-09-24T15:25:20.778Z,6.60
2022-09-24T15:27:52.549Z,6.60
2022-09-24T15:30:21.338Z,9.80
2022-09-24T15:32:49.917Z,8.40
2022-09-24T15:35:18.079Z,7.10
2022-09-24T15:37:46.360Z,8.70
2022-09-24T15:40:25.684Z,7.60
2022-09-24T15:42:53.657Z,9.70
2022-09-24T15:45:23.370Z,9.20
2022-09-24T15:47:52.398Z,9.80
2022-09-24T15:50:21.763Z,8.80
2022-09-24T15:52:56.802Z,11.10
2022-09-24T15:55:24.991Z,10.00
2022-09-24T15:57:53.358Z,10.50
2022-09-24T16:00:23.692Z,12.90
2022-09-24T16:02:54.519Z,11.90
2022-09-24T16:05:23.507Z,11.70
2022-09-24T16:07:51.483Z,12.40
2022-09-24T16:10:19.778Z,15.30
2022-09-24T16:12:49.155Z,14.70
2022-09-24T16:15:17.226Z,22.50
2022-09-24T16:17:45.191Z,16.80
2022-09-24T16:20:12.855Z,20.20
2022-09-24T16:22:40.719Z,17.30
2022-09-24T16:25:09.312Z,14.90
2022-09-24T16:27:37.387Z,16.90
2022-09-24T16:30:07.671Z,14.60
2022-09-24T16:32:35.568Z,15.30
2022-09-24T16:35:03.427Z,15.60
2022-09-24T16:37:31.157Z,15.20
2022-09-24T16:39:59.282Z,15.80
2022-09-24T16:42:27.746Z,15.20
2022-09-24T16:44:55.566Z,17.40
2022-09-24T16:47:24.396Z,14.90
2022-09-24T16:49:52.063Z,16.30
2022-09-24T16:52:20.000Z,22.30
2022-09-24T16:54:48.164Z,20.70
2022-09-24T16:57:15.969Z,18.20
2022-09-24T16:59:44.245Z,21.10
2022-09-24T17:02:12.576Z,21.70
2022-09-24T17:04:40.538Z,19.90
2022-09-24T17:07:10.628Z,18.50
2022-09-24T17:09:56.903Z,20.80
2022-09-24T17:12:24.777Z,22.90
2022-09-24T17:14:52.747Z,23.10
2022-09-24T17:17:20.713Z,24.00
2022-09-24T17:19:50.452Z,26.60
2022-09-24T17:22:18.162Z,28.90
2022-09-24T17:24:46.161Z,24.30
2022-09-24T17:27:14.142Z,25.30
2022-09-24T17:29:42.802Z,19.90
2022-09-24T17:32:13.545Z,21.60
2022-09-24T17:34:45.640Z,22.80
2022-09-24T17:37:14.807Z,21.90
2022-09-24T17:39:44.616Z,22.40
2022-09-24T17:42:13.191Z,21.10
2022-09-24T17:44:41.478Z,22.50
2022-09-24T17:47:10.244Z,21.40
2022-09-24T17:49:38.131Z,24.40
2022-09-24T17:52:07.036Z,22.80
2022-09-24T17:54:35.203Z,27.20
2022-09-24T17:57:02.956Z,22.20
2022-09-24T17:59:31.134Z,24.50
2022-09-24T18:01:58.970Z,24.60
2022-09-24T18:04:31.247Z,29.90
2022-09-24T18:07:00.254Z,28.20
2022-09-24T18:09:28.638Z,29.40
2022-09-24T18:11:56.914Z,32.60
2022-09-24T18:14:26.188Z,34.30
2022-09-24T18:16:53.873Z,34.90
2022-09-24T18:19:22.967Z,36.00
2022-09-24T18:21:53.392Z,36.00
2022-09-24T18:24:23.638Z,35.00
2022-09-24T18:26:52.915Z,35.90
2022-09-24T18:29:22.044Z,36.30
2022-09-24T18:31:51.682Z,32.90
2022-09-24T18:34:19.808Z,32.50
2022-09-24T18:36:47.352Z,33.00
2022-09-24T18:39:21.729Z,30.50
2022-09-24T18:41:51.926Z,32.70
2022-09-24T18:44:19.555Z,26.60
2022-09-24T18:46:47.643Z,28.10
2022-09-24T18:49:17.288Z,28.60
2022-09-24T18:51:46.328Z,27.30
2022-09-24T18:54:14.454Z,28.60
2022-09-24T18:56:43.533Z,23.30
2022-09-24T18:59:14.228Z,31.10
2022-09-24T19:01:43.112Z,29.90
2022-09-24T19:04:12.112Z,23.90
2022-09-24T19:06:42.055Z,26.70
2022-09-24T19:09:10.586Z,26.20
2022-09-24T19:11:38.785Z,23.50
2022-09-24T19:14:07.771Z,26.50
2022-09-24T19:16:35.560Z,28.60
2022-09-24T19:19:03.933Z,26.30
2022-09-24T19:21:31.685Z,27.30
2022-09-24T19:23:59.640Z,25.80
2022-09-24T19:26:30.413Z,23.70
2022-09-24T19:28:59.991Z,25.80
2022-09-24T19:31:32.402Z,27.20
2022-09-24T19:34:04.183Z,28.90
2022-09-24T19:36:36.245Z,29.00
2022-09-24T19:39:06.909Z,32.80
2022-09-24T19:41:34.677Z,36.10
2022-09-24T19:44:08.258Z,33.10
2022-09-24T19:46:38.659Z,35.50
2022-09-24T19:49:07.528Z,30.20
2022-09-24T19:51:36.181Z,32.20
2022-09-24T19:54:11.342Z,32.40
2022-09-24T19:56:39.898Z,30.20
2022-09-24T19:59:08.537Z,31.40
2022-09-24T20:01:36.588Z,33.20
2022-09-24T20:04:06.773Z,30.30
2022-09-24T20:06:37.731Z,32.20
2022-09-24T20:09:05.989Z,31.70
2022-09-24T20:11:33.882Z,31.20
2022-09-24T20:14:01.953Z,31.30
2022-09-24T20:16:33.503Z,30.10
2022-09-24T20:19:02.176Z,30.00
2022-09-24T20:21:34.154Z,32.60
2022-09-24T20:24:03.331Z,26.70
2022-09-24T20:26:49.825Z,26.00
2022-09-24T20:29:22.754Z,27.30
2022-09-24T20:31:53.014Z,28.80
2022-09-24T20:34:33.299Z,28.40
2022-09-24T20:37:05.337Z,27.60
2022-09-24T20:39:33.736Z,29.30
2022-09-24T20:42:05.799Z,31.00
2022-09-24T20:44:35.311Z,30.50
2022-09-24T20:47:03.370Z,35.80
2022-09-24T20:49:33.312Z,35.60
2022-09-24T20:52:04.877Z,34.70
2022-09-24T20:54:33.530Z,37.90
2022-09-24T20:57:02.117Z,31.10
2022-09-24T20:59:30.724Z,33.20
2022-09-24T21:01:58.612Z,29.80
2022-09-24T21:04:26.943Z,29.40
2022-09-24T21:06:55.009Z,32.10
2022-09-24T21:09:22.870Z,35.80
2022-09-24T21:11:53.246Z,34.30
2022-09-24T21:14:21.469Z,34.10
2022-09-24T21:16:54.771Z,30.60
2022-09-24T21:19:22.948Z,35.90
2022-09-24T21:21:52.271Z,32.00
2022-09-24T21:24:20.721Z,30.10
2022-09-24T21:26:49.000Z,35.50
2022-09-24T21:29:20.340Z,34.30
2022-09-24T21:31:49.041Z,33.70
2022-09-24T21:34:20.516Z,32.30
2022-09-24T21:36:48.793Z,30.70
2022-09-24T21:39:23.107Z,31.20
2022-09-24T21:41:52.686Z,31.00
2022-09-24T21:44:21.473Z,28.60
2022-09-24T21:46:52.531Z,29.50
2022-09-24T21:49:20.920Z,23.10
2022-09-24T21:51:48.899Z,30.20
2022-09-24T21:54:18.332Z,22.90
2022-09-24T21:56:46.550Z,28.20
2022-09-24T21:59:34.468Z,24.80
2022-09-24T22:02:03.143Z,27.10
2022-09-24T22:04:33.909Z,30.40
2022-09-24T22:07:02.784Z,27.30
2022-09-24T22:09:32.085Z,29.80
2022-09-24T22:12:01.490Z,26.60
2022-09-24T22:14:29.802Z,26.90
2022-09-24T22:16:57.778Z,24.80
2022-09-24T22:19:25.801Z,27.80
2022-09-24T22:21:53.664Z,29.60
2022-09-24T22:24:21.736Z,29.70
2022-09-24T22:26:50.220Z,30.10
2022-09-24T22:29:18.183Z,30.70
2022-09-24T22:31:47.294Z,28.40
2022-09-24T22:34:33.886Z,26.40
2022-09-24T22:37:05.805Z,29.50
2022-09-24T22:39:34.879Z,23.80
2022-09-24T22:42:02.505Z,22.80
2022-09-24T22:44:30.276Z,25.40
2022-09-24T22:47:00.997Z,25.00
2022-09-24T22:49:29.068Z,39.00
2022-09-24T22:51:57.052Z,51.80
2022-09-24T22:54:25.322Z,33.20
2022-09-24T22:56:53.194Z,34.40
2022-09-24T22:59:20.975Z,31.20
2022-09-24T23:01:48.955Z,33.70
2022-09-24T23:04:16.988Z,33.00
2022-09-24T23:06:44.551Z,33.90
2022-09-24T23:09:12.614Z,34.20
2022-09-24T23:11:40.902Z,34.90
2022-09-24T23:14:13.971Z,31.70
2022-09-24T23:16:42.854Z,28.90
2022-09-24T23:19:19.140Z,30.50
2022-09-24T23:21:47.585Z,31.10
2022-09-24T23:24:19.486Z,29.30
2022-09-24T23:26:47.750Z,29.30
2022-09-24T23:29:15.624Z,29.90
2022-09-24T23:31:44.408Z,33.00
2022-09-24T23:34:13.164Z,30.70
2022-09-24T23:36:41.263Z,29.00
2022-09-24T23:39:09.142Z,29.30
2022-09-24T23:41:36.998Z,30.20
2022-09-24T23:44:04.964Z,28.20
2022-09-24T23:46:35.803Z,26.60
2022-09-24T23:49:03.672Z,31.70
2022-09-24T23:51:31.541Z,26.30
2022-09-24T23:53:59.913Z,29.10
2022-09-24T23:56:28.329Z,24.80
2022-09-24T23:58:55.952Z,23.40
